Fultondale, Alabama
Current Conditions -  °F | °C
As of 2:53 AM on Sunday 23 Nov 2014 (Local Time) from KBHM Reporting Station
Overcast Overcast  
Wind Chill: 55°   Ceiling: 1600
Heat Index: 55°   Visibility: 9mi
Dew Point: 52°   Wind: 9mph
Humidity: 89%   Direction: 90°E
Pressure: 29.98"   Gusts: 17mph
Location:  33.61°N, 86.8°W
Report Text: KBHM 230853Z 09008G15KT 9SM SCT010 OVC016 13/11 A2998 RMK AO2 RAB36E37 SLP148 P0000 60000 T01280111 58034
Loading
Personal Weather Stations






























Interactive Weather Map New forecast layout! Learn more

10-Day Weather Forecast

Advertisements
Track Severe Weather on mobile